createdAt,value
2023-02-06T00:01:44.618Z,-6.77
2023-02-06T00:04:15.349Z,-6.85
2023-02-06T00:06:43.941Z,-6.81
2023-02-06T00:09:12.192Z,-6.79
2023-02-06T00:11:44.407Z,-6.84
2023-02-06T00:14:15.338Z,-6.84
2023-02-06T00:16:46.803Z,-6.76
2023-02-06T00:19:16.922Z,-6.70
2023-02-06T00:21:44.978Z,-6.74
2023-02-06T00:24:14.034Z,-6.85
2023-02-06T00:26:42.220Z,-6.88
2023-02-06T00:29:10.284Z,-6.88
2023-02-06T00:31:38.454Z,-6.94
2023-02-06T00:34:10.244Z,-7.05
2023-02-06T00:36:38.380Z,-7.26
2023-02-06T00:39:06.741Z,-7.29
2023-02-06T00:41:38.418Z,-7.30
2023-02-06T00:44:09.575Z,-7.29
2023-02-06T00:46:37.841Z,-7.29
2023-02-06T00:49:09.631Z,-7.26
2023-02-06T00:51:40.247Z,-7.19
2023-02-06T00:54:12.657Z,-7.15
2023-02-06T00:56:45.940Z,-7.11
2023-02-06T00:59:16.702Z,-7.11
2023-02-06T01:01:44.865Z,-7.09
2023-02-06T01:04:14.320Z,-7.08
2023-02-06T01:06:42.382Z,-7.13
2023-02-06T01:09:10.468Z,-7.12
2023-02-06T01:11:39.612Z,-7.05
2023-02-06T01:14:10.778Z,-6.97
2023-02-06T01:16:39.034Z,-6.90
2023-02-06T01:19:07.114Z,-6.88
2023-02-06T01:21:37.715Z,-6.97
2023-02-06T01:24:06.292Z,-7.04
2023-02-06T01:26:34.677Z,-7.04
2023-02-06T01:29:08.632Z,-7.08
2023-02-06T01:31:36.780Z,-7.05
2023-02-06T01:34:07.559Z,-7.15
2023-02-06T01:36:38.410Z,-7.22
2023-02-06T01:39:07.107Z,-7.32
2023-02-06T01:41:35.298Z,-7.28
2023-02-06T01:44:15.559Z,-7.22
2023-02-06T01:46:47.293Z,-7.13
2023-02-06T01:49:20.737Z,-7.18
2023-02-06T01:51:56.845Z,-7.32
2023-02-06T01:54:25.388Z,-7.51
2023-02-06T01:56:55.548Z,-7.61
2023-02-06T01:59:27.557Z,-7.77
2023-02-06T02:01:57.099Z,-7.90
2023-02-06T02:04:35.356Z,-7.86
2023-02-06T02:07:13.104Z,-7.76
2023-02-06T02:09:41.406Z,-7.63
2023-02-06T02:12:09.506Z,-7.39
2023-02-06T02:14:43.005Z,-7.18
2023-02-06T02:17:26.725Z,-6.94
2023-02-06T02:20:18.547Z,-6.85
2023-02-06T02:23:03.204Z,-7.04
2023-02-06T02:26:07.748Z,-7.40
2023-02-06T02:29:15.679Z,-7.40
2023-02-06T02:32:10.973Z,-7.35
2023-02-06T02:35:06.707Z,-7.32
2023-02-06T02:37:44.896Z,-7.36
2023-02-06T02:40:24.276Z,-7.35
2023-02-06T02:43:03.011Z,-7.40
2023-02-06T02:45:37.963Z,-7.44
2023-02-06T02:48:09.972Z,-7.47
2023-02-06T02:50:41.365Z,-7.60
2023-02-06T02:53:16.977Z,-7.60
2023-02-06T02:55:47.684Z,-7.54
2023-02-06T02:58:28.705Z,-7.46
2023-02-06T03:01:04.813Z,-7.50
2023-02-06T03:03:37.715Z,-7.50
2023-02-06T03:06:26.851Z,-7.59
2023-02-06T03:09:03.009Z,-7.63
2023-02-06T03:11:31.610Z,-7.76
2023-02-06T03:14:07.152Z,-7.77
2023-02-06T03:16:40.164Z,-7.71
2023-02-06T03:19:14.479Z,-7.69
2023-02-06T03:21:51.378Z,-7.74
2023-02-06T03:24:26.004Z,-7.77
2023-02-06T03:26:59.841Z,-7.87
2023-02-06T03:29:30.716Z,-7.95
2023-02-06T03:32:03.011Z,-7.87
2023-02-06T03:34:36.991Z,-7.78
2023-02-06T03:37:07.635Z,-7.73
2023-02-06T03:39:36.145Z,-7.71
2023-02-06T03:42:06.800Z,-7.73
2023-02-06T03:44:38.286Z,-7.73
2023-02-06T03:47:09.197Z,-7.67
2023-02-06T03:49:40.812Z,-7.76
2023-02-06T03:52:13.500Z,-7.87
2023-02-06T03:54:46.508Z,-7.88
2023-02-06T03:57:19.511Z,-8.06
2023-02-06T03:59:49.041Z,-8.12
2023-02-06T04:02:18.791Z,-8.11
2023-02-06T04:04:47.489Z,-8.06
2023-02-06T04:07:21.646Z,-8.01
2023-02-06T04:09:49.900Z,-7.93
2023-02-06T04:12:17.922Z,-7.86
2023-02-06T04:14:46.179Z,-7.84
2023-02-06T04:17:21.116Z,-7.86
2023-02-06T04:19:59.805Z,-7.86
2023-02-06T04:22:29.340Z,-7.88
2023-02-06T04:24:57.369Z,-7.84
2023-02-06T04:27:31.524Z,-7.77
2023-02-06T04:30:00.096Z,-7.70
2023-02-06T04:32:28.347Z,-7.67
2023-02-06T04:34:56.731Z,-7.74
2023-02-06T04:37:24.885Z,-7.76
2023-02-06T04:39:54.382Z,-7.95
2023-02-06T04:42:23.513Z,-8.14
2023-02-06T04:44:52.587Z,-8.28
2023-02-06T04:47:20.600Z,-8.37
2023-02-06T04:49:48.684Z,-8.33
2023-02-06T04:52:16.750Z,-8.42
2023-02-06T04:54:44.833Z,-8.39
2023-02-06T04:57:14.344Z,-8.36
2023-02-06T04:59:43.466Z,-8.35
2023-02-06T05:02:11.631Z,-8.49
2023-02-06T05:04:40.114Z,-8.60
2023-02-06T05:07:08.285Z,-8.56
2023-02-06T05:09:36.461Z,-8.40
2023-02-06T05:12:05.606Z,-8.42
2023-02-06T05:14:35.077Z,-8.36
2023-02-06T05:17:03.230Z,-8.40
2023-02-06T05:19:31.385Z,-8.39
2023-02-06T05:22:00.449Z,-8.32
2023-02-06T05:24:29.039Z,-8.32
2023-02-06T05:26:58.499Z,-8.19
2023-02-06T05:29:27.382Z,-8.12
2023-02-06T05:31:57.916Z,-8.06
2023-02-06T05:34:26.388Z,-8.02
2023-02-06T05:36:56.684Z,-8.04
2023-02-06T05:39:24.768Z,-8.06
2023-02-06T05:41:52.881Z,-8.16
2023-02-06T05:44:21.993Z,-8.16
2023-02-06T05:46:57.179Z,-8.15
2023-02-06T05:49:26.668Z,-8.11
2023-02-06T05:51:54.775Z,-7.99
2023-02-06T05:54:22.919Z,-7.97
2023-02-06T05:56:51.014Z,-7.97
2023-02-06T05:59:19.126Z,-7.91
2023-02-06T06:01:47.325Z,-7.87
2023-02-06T06:04:16.854Z,-7.81
2023-02-06T06:06:46.308Z,-7.83
2023-02-06T06:09:14.821Z,-7.90
2023-02-06T06:11:46.295Z,-7.94
2023-02-06T06:14:14.386Z,-7.93
2023-02-06T06:16:42.819Z,-7.97
2023-02-06T06:19:11.086Z,-8.04
2023-02-06T06:21:39.269Z,-8.05
2023-02-06T06:24:09.025Z,-8.04
2023-02-06T06:26:37.673Z,-8.09
2023-02-06T06:29:05.897Z,-8.11
2023-02-06T06:31:34.110Z,-7.99
2023-02-06T06:34:02.412Z,-8.04
2023-02-06T06:36:30.642Z,-8.14
2023-02-06T06:38:58.728Z,-8.12
2023-02-06T06:41:29.550Z,-8.12
2023-02-06T06:43:59.419Z,-8.05
2023-02-06T06:46:27.780Z,-8.06
2023-02-06T06:48:56.184Z,-8.05
2023-02-06T06:51:26.789Z,-7.99
2023-02-06T06:54:00.959Z,-7.88
2023-02-06T06:56:30.681Z,-7.83
2023-02-06T06:58:59.930Z,-7.77
2023-02-06T07:01:28.066Z,-7.67
2023-02-06T07:03:56.277Z,-7.60
2023-02-06T07:06:24.498Z,-7.51
2023-02-06T07:08:52.609Z,-7.44
2023-02-06T07:11:21.716Z,-7.40
2023-02-06T07:13:51.232Z,-7.29
2023-02-06T07:16:19.363Z,-7.11
2023-02-06T07:18:48.613Z,-7.00
2023-02-06T07:21:19.878Z,-6.97
2023-02-06T07:23:48.072Z,-6.90
2023-02-06T07:26:16.162Z,-6.90
2023-02-06T07:28:44.304Z,-6.85
2023-02-06T07:31:13.800Z,-6.76
2023-02-06T07:33:42.026Z,-6.66
2023-02-06T07:36:12.418Z,-6.57
2023-02-06T07:38:43.048Z,-6.39
2023-02-06T07:41:12.680Z,-6.29
2023-02-06T07:43:41.892Z,-6.16
2023-02-06T07:46:10.198Z,-5.99
2023-02-06T07:48:39.763Z,-5.91
2023-02-06T07:51:09.274Z,-5.76
2023-02-06T07:53:39.363Z,-5.64
2023-02-06T07:56:12.042Z,-5.56
2023-02-06T07:58:40.200Z,-5.49
2023-02-06T08:01:08.885Z,-5.42
2023-02-06T08:03:39.597Z,-5.26
2023-02-06T08:06:11.972Z,-5.09
2023-02-06T08:08:40.300Z,-5.04
2023-02-06T08:11:16.022Z,-4.98
2023-02-06T08:13:44.676Z,-4.88
2023-02-06T08:16:14.838Z,-4.81
2023-02-06T08:18:44.524Z,-4.71
2023-02-06T08:21:14.634Z,-4.59
2023-02-06T08:23:43.906Z,-4.42
2023-02-06T08:26:13.914Z,-4.33
2023-02-06T08:28:45.032Z,-4.14
2023-02-06T08:31:16.017Z,-4.02
2023-02-06T08:34:16.838Z,-3.85
2023-02-06T08:36:50.065Z,-3.77
2023-02-06T08:39:19.269Z,-3.71
2023-02-06T08:41:47.699Z,-3.64
2023-02-06T08:44:18.222Z,-3.63
2023-02-06T08:46:47.911Z,-3.59
2023-02-06T08:49:19.995Z,-3.40
2023-02-06T08:51:54.433Z,-3.36
2023-02-06T08:54:24.941Z,-3.36
2023-02-06T08:56:56.430Z,-3.34
2023-02-06T09:00:15.489Z,-3.32
2023-02-06T09:02:43.695Z,-3.18
2023-02-06T09:05:14.506Z,-3.12
2023-02-06T09:07:42.865Z,-2.99
2023-02-06T09:10:26.781Z,-2.87
2023-02-06T09:13:49.123Z,-2.71
2023-02-06T09:17:15.831Z,-2.64
2023-02-06T09:20:41.722Z,-2.53
2023-02-06T09:28:13.944Z,-2.45
2023-02-06T09:30:43.842Z,-2.38
2023-02-06T09:33:38.626Z,-2.26
2023-02-06T09:36:33.898Z,-2.16
2023-02-06T09:39:33.243Z,-2.09
2023-02-06T09:42:52.240Z,-2.12
2023-02-06T09:45:49.578Z,-2.04
2023-02-06T09:48:26.320Z,-1.95
2023-02-06T09:51:27.728Z,-1.88
2023-02-06T09:54:12.308Z,-1.83
2023-02-06T09:56:50.289Z,-1.77
2023-02-06T09:59:26.414Z,-1.64
2023-02-06T10:02:07.334Z,-1.60
2023-02-06T10:04:47.869Z,-1.46
2023-02-06T10:11:48.010Z,-1.34
2023-02-06T10:14:23.448Z,-1.52
2023-02-06T10:17:27.207Z,-1.45
2023-02-06T10:24:33.410Z,-1.04
2023-02-06T10:27:13.059Z,-0.87
2023-02-06T10:30:39.871Z,-0.70
2023-02-06T10:37:55.205Z,-0.48
2023-02-06T10:44:50.846Z,-0.36
2023-02-06T10:51:48.610Z,-0.48
2023-02-06T10:54:32.371Z,-0.43
2023-02-06T10:57:01.927Z,-0.28
2023-02-06T11:00:05.816Z,-0.02
2023-02-06T11:08:07.081Z,0.12
2023-02-06T11:11:31.524Z,0.20
2023-02-06T11:18:29.375Z,0.29
2023-02-06T11:21:00.655Z,0.23
2023-02-06T11:27:47.561Z,0.10
2023-02-06T11:38:55.480Z,0.16
2023-02-06T11:41:58.723Z,0.22
2023-02-06T11:44:27.561Z,0.60
2023-02-06T11:51:09.611Z,0.88
2023-02-06T11:58:08.056Z,1.06
2023-02-06T12:04:48.390Z,1.16
2023-02-06T12:11:53.307Z,0.98
2023-02-06T12:18:51.162Z,1.33
2023-02-06T12:25:41.719Z,1.39
2023-02-06T12:32:39.932Z,1.23
2023-02-06T12:35:23.018Z,1.13
2023-02-06T12:42:23.225Z,1.15
2023-02-06T12:49:46.410Z,0.82
2023-02-06T12:56:39.916Z,0.91
2023-02-06T13:03:36.743Z,0.80
2023-02-06T13:06:14.860Z,0.84
2023-02-06T13:13:24.588Z,1.03
2023-02-06T13:24:16.829Z,0.80
2023-02-06T13:27:16.504Z,0.68
2023-02-06T13:34:09.222Z,0.85
2023-02-06T13:36:49.350Z,0.91
2023-02-06T13:43:35.982Z,0.99
2023-02-06T13:50:50.893Z,0.82
2023-02-06T13:57:55.021Z,0.53
2023-02-06T14:04:48.520Z,0.19
2023-02-06T14:07:45.404Z,0.20
2023-02-06T14:14:33.061Z,0.13
2023-02-06T14:21:27.189Z,0.27
2023-02-06T14:28:30.298Z,0.06
2023-02-06T14:35:25.853Z,0.01
2023-02-06T14:42:22.117Z,-0.04
2023-02-06T14:49:05.161Z,-0.29
2023-02-06T14:56:10.631Z,-0.49
2023-02-06T15:03:09.993Z,-0.61
2023-02-06T15:14:52.033Z,-0.71
2023-02-06T15:21:45.118Z,-0.80
2023-02-06T15:28:39.998Z,-0.97
2023-02-06T15:35:37.600Z,-1.02
2023-02-06T15:42:25.357Z,-1.09
2023-02-06T15:49:19.009Z,-1.28
2023-02-06T15:56:10.415Z,-1.46
2023-02-06T16:03:07.753Z,-1.57
2023-02-06T16:14:52.558Z,-1.85
2023-02-06T16:21:46.052Z,-1.94
2023-02-06T16:25:20.335Z,-2.08
2023-02-06T16:27:59.360Z,-2.25
2023-02-06T16:30:57.846Z,-2.32
2023-02-06T16:34:08.851Z,-2.33
2023-02-06T16:37:28.455Z,-2.39
2023-02-06T16:40:51.534Z,-2.49
2023-02-06T16:44:43.963Z,-2.52
2023-02-06T16:56:14.111Z,-2.92
2023-02-06T16:59:08.441Z,-3.11
2023-02-06T17:06:15.364Z,-3.36
2023-02-06T17:09:18.854Z,-3.26
2023-02-06T17:11:53.295Z,-3.18
2023-02-06T17:15:19.435Z,-3.23
2023-02-06T17:17:54.594Z,-3.28
2023-02-06T17:20:32.172Z,-3.19
2023-02-06T17:24:11.304Z,-3.15
2023-02-06T17:27:33.209Z,-3.12
2023-02-06T17:30:07.169Z,-3.09
2023-02-06T17:32:35.648Z,-3.11
2023-02-06T17:35:06.217Z,-3.16
2023-02-06T17:37:40.288Z,-3.23
2023-02-06T17:40:10.232Z,-3.26
2023-02-06T17:42:39.379Z,-3.34
2023-02-06T17:45:13.956Z,-3.39
2023-02-06T17:48:36.412Z,-3.46
2023-02-06T17:51:10.414Z,-3.53
2023-02-06T17:53:55.601Z,-3.57
2023-02-06T17:56:24.981Z,-3.62
2023-02-06T17:58:55.169Z,-3.67
2023-02-06T18:01:54.295Z,-3.77
2023-02-06T18:04:28.662Z,-3.83
2023-02-06T18:06:56.830Z,-3.83
2023-02-06T18:09:25.972Z,-3.84
2023-02-06T18:11:56.157Z,-3.80
2023-02-06T18:14:32.377Z,-3.70
2023-02-06T18:17:04.725Z,-3.76
2023-02-06T18:19:42.451Z,-3.76
2023-02-06T18:22:24.564Z,-3.81
2023-02-06T18:24:57.417Z,-3.76
2023-02-06T18:27:35.120Z,-3.70
2023-02-06T18:30:05.558Z,-3.64
2023-02-06T18:32:37.093Z,-3.60
2023-02-06T18:35:07.935Z,-3.59
2023-02-06T18:37:36.551Z,-3.64
2023-02-06T18:40:11.382Z,-3.67
2023-02-06T18:42:54.597Z,-3.76
2023-02-06T18:45:31.262Z,-3.68
2023-02-06T18:48:01.167Z,-3.67
2023-02-06T18:50:58.961Z,-3.66
2023-02-06T18:53:41.324Z,-3.66
2023-02-06T18:56:11.491Z,-3.63
2023-02-06T18:58:40.245Z,-3.73
2023-02-06T19:01:13.950Z,-3.78
2023-02-06T19:03:47.224Z,-3.83
2023-02-06T19:06:44.662Z,-3.85
2023-02-06T19:09:13.617Z,-3.85
2023-02-06T19:11:44.720Z,-3.91
2023-02-06T19:14:25.494Z,-3.88
2023-02-06T19:16:55.208Z,-3.88
2023-02-06T19:19:31.050Z,-3.94
2023-02-06T19:22:04.225Z,-4.09
2023-02-06T19:24:35.471Z,-4.22
2023-02-06T19:27:10.937Z,-4.42
2023-02-06T19:29:52.844Z,-4.48
2023-02-06T19:32:22.113Z,-4.52
2023-02-06T19:34:53.505Z,-4.77
2023-02-06T19:37:25.364Z,-4.85
2023-02-06T19:39:55.657Z,-4.80
2023-02-06T19:42:23.898Z,-4.70
2023-02-06T19:44:56.377Z,-4.57
2023-02-06T19:47:24.673Z,-4.70
2023-02-06T19:49:54.559Z,-4.85
2023-02-06T19:52:22.774Z,-5.01
2023-02-06T19:54:51.113Z,-5.18
2023-02-06T19:57:27.036Z,-5.23
2023-02-06T19:59:59.215Z,-5.19
2023-02-06T20:02:28.445Z,-5.04
2023-02-06T20:05:27.260Z,-4.92
2023-02-06T20:07:55.711Z,-4.87
2023-02-06T20:10:25.147Z,-4.81
2023-02-06T20:12:53.627Z,-5.01
2023-02-06T20:15:32.071Z,-5.16
2023-02-06T20:18:01.372Z,-5.15
2023-02-06T20:20:35.267Z,-5.18
2023-02-06T20:23:05.108Z,-5.08
2023-02-06T20:25:36.948Z,-5.09
2023-02-06T20:28:07.237Z,-5.20
2023-02-06T20:30:37.894Z,-5.13
2023-02-06T20:33:06.498Z,-5.12
2023-02-06T20:35:41.995Z,-5.13
2023-02-06T20:38:11.277Z,-5.19
2023-02-06T20:40:43.833Z,-5.22
2023-02-06T20:43:12.377Z,-5.35
2023-02-06T20:45:41.454Z,-5.43
2023-02-06T20:48:10.532Z,-5.69
2023-02-06T20:50:40.006Z,-5.81
2023-02-06T20:53:09.141Z,-5.78
2023-02-06T20:55:41.662Z,-5.70
2023-02-06T20:58:11.275Z,-5.69
2023-02-06T21:00:39.485Z,-5.71
2023-02-06T21:03:07.805Z,-5.70
2023-02-06T21:05:36.858Z,-5.62
2023-02-06T21:08:06.745Z,-5.53
2023-02-06T21:10:35.113Z,-5.42
2023-02-06T21:13:04.887Z,-5.67
2023-02-06T21:15:35.085Z,-5.76
2023-02-06T21:18:05.302Z,-5.77
2023-02-06T21:20:33.724Z,-5.74
2023-02-06T21:23:10.176Z,-5.64
2023-02-06T21:25:40.900Z,-5.57
2023-02-06T21:28:10.231Z,-5.52
2023-02-06T21:30:40.679Z,-5.49
2023-02-06T21:33:10.178Z,-5.53
2023-02-06T21:35:40.413Z,-5.55
2023-02-06T21:38:13.816Z,-5.69
2023-02-06T21:40:41.913Z,-5.78
2023-02-06T21:43:10.127Z,-5.78
2023-02-06T21:45:39.605Z,-5.91
2023-02-06T21:48:08.486Z,-6.01
2023-02-06T21:50:40.031Z,-6.01
2023-02-06T21:53:11.663Z,-5.97
2023-02-06T21:55:49.311Z,-5.86
2023-02-06T21:58:17.724Z,-5.80
2023-02-06T22:00:50.082Z,-5.87
2023-02-06T22:03:24.821Z,-5.87
2023-02-06T22:05:53.012Z,-5.93
2023-02-06T22:08:22.602Z,-6.02
2023-02-06T22:10:57.746Z,-6.06
2023-02-06T22:13:25.813Z,-6.12
2023-02-06T22:15:55.924Z,-6.21
2023-02-06T22:18:25.399Z,-6.26
2023-02-06T22:21:04.223Z,-6.30
2023-02-06T22:23:34.839Z,-6.28
2023-02-06T22:26:03.146Z,-6.30
2023-02-06T22:28:33.382Z,-6.22
2023-02-06T22:31:06.825Z,-6.25
2023-02-06T22:33:35.295Z,-6.30
2023-02-06T22:36:06.641Z,-6.36
2023-02-06T22:38:38.925Z,-6.39
2023-02-06T22:41:11.357Z,-6.46
2023-02-06T22:43:41.726Z,-6.54
2023-02-06T22:46:36.616Z,-6.64
2023-02-06T22:49:06.147Z,-6.71
2023-02-06T22:51:34.353Z,-6.66
2023-02-06T22:54:05.905Z,-6.62
2023-02-06T22:56:36.920Z,-6.60
2023-02-06T22:59:07.835Z,-6.71
2023-02-06T23:01:40.197Z,-6.74
2023-02-06T23:04:12.418Z,-6.83
2023-02-06T23:06:40.631Z,-6.90
2023-02-06T23:09:13.288Z,-6.90
2023-02-06T23:11:42.125Z,-6.92
2023-02-06T23:14:19.129Z,-6.87
2023-02-06T23:16:48.098Z,-6.85
2023-02-06T23:19:18.664Z,-6.77
2023-02-06T23:21:49.470Z,-6.79
2023-02-06T23:24:19.820Z,-6.77
2023-02-06T23:26:52.554Z,-6.73
2023-02-06T23:29:22.138Z,-6.71
2023-02-06T23:31:50.803Z,-6.81
2023-02-06T23:34:20.535Z,-6.84
2023-02-06T23:36:49.118Z,-6.91
2023-02-06T23:39:19.719Z,-6.92
2023-02-06T23:41:47.872Z,-6.95
2023-02-06T23:44:15.956Z,-6.97
2023-02-06T23:46:44.006Z,-6.91
2023-02-06T23:49:12.494Z,-6.87
2023-02-06T23:51:40.691Z,-6.88
2023-02-06T23:54:10.407Z,-6.97
2023-02-06T23:56:39.916Z,-7.09
2023-02-06T23:59:10.231Z,-7.19
